Time,TemperatureF,DewpointF,PressureIn,WindDirection,WindDirectionDegrees,WindSpeedMPH,WindSpeedGustMPH,Humidity,HourlyPrecipIn,Conditions,Clouds,dailyrainin,SolarRadiationWatts/m^2,SoftwareType,DateUTC
2013-06-12 00:02:00,54.0,14.0,-100.00,North,11,0.0,0.0,20,0.00,,,0.00,0.000000,,2013-06-12 07:02:00,
2013-06-12 00:12:00,54.0,14.0,-100.00,North,11,0.0,0.0,20,0.00,,,0.00,0.000000,,2013-06-12 07:12:00,
2013-06-12 00:22:00,54.0,14.0,-100.00,North,11,0.0,0.0,20,0.00,,,0.00,0.000000,,2013-06-12 07:22:00,
2013-06-12 00:33:00,54.0,14.0,-100.00,North,11,0.0,0.0,20,0.00,,,0.00,0.000000,,2013-06-12 07:33:00,
2013-06-12 02:01:00,51.0,14.0,-100.00,North,11,0.0,0.0,22,0.00,,,0.00,0.000000,,2013-06-12 09:01:00,
2013-06-12 04:33:00,53.0,16.0,-100.00,NNW,339,0.0,0.0,23,0.00,,,0.00,0.000000,,2013-06-12 11:33:00,
2013-06-12 05:01:00,55.0,17.0,-100.00,East,96,0.0,0.0,22,0.00,,,0.00,0.000000,,2013-06-12 12:01:00,
2013-06-12 05:11:00,55.0,17.0,-100.00,East,96,0.0,0.0,22,0.00,,,0.00,0.000000,,2013-06-12 12:11:00,
2013-06-12 05:23:00,55.0,17.0,-100.00,East,96,0.0,0.0,22,0.00,,,0.00,0.000000,,2013-06-12 12:23:00,
2013-06-12 05:33:00,55.0,17.0,-100.00,East,96,0.0,0.0,22,0.00,,,0.00,0.000000,,2013-06-12 12:33:00,
2013-06-12 06:11:00,53.0,17.0,-100.00,NNW,337,0.0,0.0,24,0.00,,,0.00,0.000000,,2013-06-12 13:11:00,
2013-06-12 06:22:00,53.0,17.0,-100.00,NNW,337,0.0,0.0,24,0.00,,,0.00,0.000000,,2013-06-12 13:22:00,
2013-06-12 06:32:00,53.0,17.0,-100.00,NNW,337,0.0,0.0,24,0.00,,,0.00,0.000000,,2013-06-12 13:32:00,
2013-06-12 07:01:00,57.0,21.0,-100.00,North,11,0.0,3.0,24,0.00,,,0.00,16.000000,,2013-06-12 14:01:00,
2013-06-12 07:11:00,57.0,21.0,-100.00,North,11,0.0,3.0,24,0.00,,,0.00,16.000000,,2013-06-12 14:11:00,
2013-06-12 07:23:00,57.0,21.0,-100.00,North,11,0.0,3.0,24,0.00,,,0.00,16.000000,,2013-06-12 14:23:00,
2013-06-12 07:33:00,57.0,21.0,-100.00,North,11,0.0,3.0,24,0.00,,,0.00,16.000000,,2013-06-12 14:33:00,
2013-06-12 08:12:00,68.0,22.0,-100.00,NNE,25,0.0,0.0,17,0.00,,,0.00,74.000000,,2013-06-12 15:12:00,
2013-06-12 11:53:00,85.0,14.0,-100.00,SSE,158,3.0,13.0,7,-99.99,,,0.00,1149.000000,,2013-06-12 18:53:00,
2013-06-12 14:53:00,82.0,24.0,-100.00,ENE,65,4.0,18.0,12,-99.99,,,0.00,1125.000000,,2013-06-12 21:53:00,
2013-06-12 16:52:00,79.0,26.0,-100.00,WNW,284,3.0,15.0,14,-99.99,,,0.00,871.000000,,2013-06-12 23:52:00,
2013-06-12 17:52:00,74.0,20.0,-100.00,SSE,147,2.0,14.0,13,-99.99,,,0.00,604.000000,,2013-06-13 00:52:00,
2013-06-12 19:11:00,64.0,31.0,-100.00,SW,225,5.0,12.0,29,-99.99,,,0.00,137.000000,,2013-06-13 02:11:00,
2013-06-12 19:22:00,64.0,31.0,-100.00,SW,225,5.0,12.0,29,-99.99,,,0.00,137.000000,,2013-06-13 02:22:00,